Station Historical Data
Daily Summary for May 20, 2017 Units:  English    Metric   Both
« Previous Day
Next Day »
Daily Weekly Monthly Yearly Custom
  High: Low: Average:
Temperature: 87.9 °F 67.4 °F 75.1 °F
Dew Point: 69.8 °F 62.9 °F 65.6 °F
Humidity: 92% 48% 74%
Wind Speed: 1.0mph 0.0mph 0.1mph
Wind Gust: 8.0mph - -
Wind- - WNW
Pressure: 30.10 in 29.99 in -
Precipitation: 0.15 in    
Historical Graphs
 
 
Tabular Data for May 20, 2017
Time Temperature Dew Point Pressure Wind Wind Speed Wind Gust Humidity Rainfall Rate (Hourly) Conditions
00:00 74.8 °F 64.4 °F 30.07 in Calm     70% 0.00 in SCT
00:15 74.2 °F 64.6 °F 30.07 in Calm     72% 0.00 in SCT
00:30 73.5 °F 64.7 °F 30.07 in Calm     74% 0.00 in SCT
00:45 73.1 °F 64.7 °F 30.07 in Calm     75% 0.00 in SCT
01:00 72.6 °F 64.6 °F 30.06 in Calm     76% 0.00 in SCT
01:15 72.1 °F 64.2 °F 30.07 in Calm     76% 0.00 in SCT
01:30 71.7 °F 64.1 °F 30.06 in Calm     77% 0.00 in SCT
01:45 70.5 °F 62.9 °F 30.07 in Calm     77% 0.00 in SCT
02:00 70.5 °F 62.9 °F 30.06 in Calm     77% 0.00 in SCT
02:15 70.5 °F 62.9 °F 30.06 in Calm     77% 0.00 in SCT
02:30 70.5 °F 62.9 °F 30.06 in Calm     77% 0.00 in SCT
02:45 70.5 °F 62.9 °F 30.06 in Calm     77% 0.00 in SCT
03:00 70.5 °F 62.9 °F 30.06 in Calm     77% 0.00 in SCT
03:15 70.5 °F 62.9 °F 30.06 in Calm     77% 0.00 in SCT
03:30 70.5 °F 62.9 °F 30.06 in Calm     77% 0.00 in SCT
03:45 70.5 °F 62.9 °F 30.06 in Calm     77% 0.00 in SCT
04:00 70.5 °F 62.9 °F 30.06 in Calm     77% 0.00 in SCT
04:15 70.5 °F 62.9 °F 30.06 in Calm     77% 0.00 in SCT
04:30 70.5 °F 62.9 °F 30.06 in Calm     77% 0.00 in SCT
04:45 70.5 °F 62.9 °F 30.06 in Calm     77% 0.00 in SCT
05:00 70.5 °F 62.9 °F 30.07 in Calm     77% 0.00 in SCT
05:15 70.5 °F 62.9 °F 30.07 in Calm     77% 0.00 in SCT
05:30 70.5 °F 62.9 °F 30.07 in Calm     77% 0.00 in SCT
05:45 70.5 °F 62.9 °F 30.08 in Calm     77% 0.00 in SCT
06:00 70.5 °F 62.9 °F 30.08 in Calm     77% 0.00 in SCT
06:15 70.5 °F 62.9 °F 30.08 in Calm     77% 0.00 in SCT
06:30 70.5 °F 62.9 °F 30.08 in Calm     77% 0.00 in SCT
06:45 70.5 °F 62.9 °F 30.09 in Calm     77% 0.00 in SCT
07:00 70.5 °F 62.9 °F 30.09 in Calm     77% 0.00 in SCT
07:15 70.5 °F 62.9 °F 30.09 in Calm     77% 0.00 in SCT
07:30 70.5 °F 62.9 °F 30.09 in Calm     77% 0.00 in SCT
07:45 67.4 °F 63.8 °F 30.10 in Calm     88% 0.00 in SCT
08:00 69.3 °F 65.2 °F 30.10 in Calm   1.0 mph 87% 0.00 in SCT
08:15 70.6 °F 65.9 °F 30.10 in Calm   1.0 mph 85% 0.00 in SCT
08:30 71.5 °F 66.4 °F 30.09 in Calm   1.0 mph 84% 0.00 in SCT
08:45 72.3 °F 66.8 °F 30.09 in Calm   1.0 mph 83% 0.00 in SCT
09:00 73.3 °F 67.5 °F 30.10 in NW 1.0 mph 2.0 mph 82% 0.00 in SCT
09:15 74.2 °F 68.3 °F 30.10 in Calm   2.0 mph 82% 0.00 in SCT
09:30 75.1 °F 68.1 °F 30.09 in Calm   2.0 mph 79% 0.00 in SCT
09:45 76.3 °F 68.5 °F 30.09 in Calm   2.0 mph 77% 0.00 in SCT
10:00 77.5 °F 69.8 °F 30.09 in Calm   2.0 mph 77% 0.00 in SCT
10:15 79.5 °F 69.7 °F 30.09 in Calm     72% 0.00 in SCT
10:30 80.4 °F 69.8 °F 30.09 in Calm     70% 0.00 in SCT
10:45 81.5 °F 69.5 °F 30.08 in Calm   1.0 mph 67% 0.00 in SCT
11:00 82.0 °F 69.1 °F 30.09 in West 1.0 mph 2.0 mph 65% 0.00 in SCT
11:15 82.5 °F 69.6 °F 30.09 in Calm   2.0 mph 65% 0.00 in SCT
11:30 83.2 °F 68.3 °F 30.09 in Calm   2.0 mph 61% 0.00 in SCT
11:45 83.6 °F 68.2 °F 30.09 in Calm   2.0 mph 60% 0.00 in SCT
12:00 84.3 °F 67.9 °F 30.09 in NW 1.0 mph 3.0 mph 58% 0.00 in SCT
12:15 84.5 °F 67.1 °F 30.10 in Calm   2.0 mph 56% 0.00 in SCT
12:30 85.7 °F 66.0 °F 30.09 in Calm   3.0 mph 52% 0.00 in SCT
12:45 86.4 °F 68.3 °F 30.09 in Calm   2.0 mph 55% 0.00 in SCT
13:00 87.3 °F 66.3 °F 30.09 in WNW 1.0 mph 5.0 mph 50% 0.00 in SCT
13:15 86.8 °F 66.0 °F 30.09 in Calm   2.0 mph 50% 0.00 in SCT
13:30 87.2 °F 67.4 °F 30.09 in Calm   2.0 mph 52% 0.00 in SCT
13:45 87.1 °F 66.8 °F 30.08 in Calm   2.0 mph 51% 0.00 in SCT
14:00 87.0 °F 67.2 °F 30.07 in Calm   3.0 mph 52% 0.00 in SCT
14:15 87.9 °F 65.8 °F 30.06 in Calm   3.0 mph 48% 0.00 in SCT
14:30 87.0 °F 65.5 °F 30.05 in Calm   2.0 mph 49% 0.00 in SCT
14:45 86.2 °F 65.9 °F 30.04 in Calm   2.0 mph 51% 0.00 in SCT
15:00 86.1 °F 65.9 °F 30.03 in Calm   1.0 mph 51% 0.00 in SCT
15:15 86.1 °F 66.4 °F 30.02 in Calm   1.0 mph 52% 0.00 in SCT
15:30 86.2 °F 66.5 °F 30.02 in Calm   2.0 mph 52% 0.00 in SCT
15:45 86.8 °F 66.5 °F 30.02 in Calm   2.0 mph 51% 0.00 in SCT
16:00 85.4 °F 66.9 °F 30.01 in Calm   1.0 mph 54% 0.00 in SCT
16:15 85.9 °F 68.4 °F 30.01 in NW 1.0 mph 3.0 mph 56% 0.00 in SCT
16:30 86.0 °F 68.0 °F 30.00 in WNW 1.0 mph 3.0 mph 55% 0.00 in SCT
16:45 86.0 °F 67.4 °F 29.99 in Calm   3.0 mph 54% 0.00 in SCT
17:00 85.9 °F 67.3 °F 30.00 in Calm   3.0 mph 54% 0.00 in SCT
17:45 83.1 °F 68.3 °F 30.01 in Calm   2.0 mph 61% 0.00 in SCT
18:00 82.5 °F 68.6 °F 30.00 in Calm   2.0 mph 63% 0.00 in SCT
18:15 82.1 °F 68.7 °F 29.99 in NW 1.0 mph 5.0 mph 64% 0.00 in SCT
18:30 81.7 °F 68.8 °F 30.01 in Calm   5.0 mph 65% 0.00 in SCT
18:45 74.5 °F 67.2 °F 30.04 in NW 1.0 mph 8.0 mph 78% 0.08 in RA
19:00 70.6 °F 65.8 °F 30.04 in Calm   2.0 mph 85% 0.05 in SCT
19:15 69.7 °F 66.0 °F 30.03 in Calm   2.0 mph 88% 0.00 in SCT
19:30 69.0 °F 65.6 °F 30.03 in Calm   1.0 mph 89% 0.00 in SCT
19:45 68.5 °F 65.1 °F 30.05 in Calm     89% 0.00 in SCT
20:00 68.2 °F 64.8 °F 30.06 in Calm     89% 0.00 in SCT
20:15 68.1 °F 65.4 °F 30.07 in Calm     91% 0.00 in SCT
20:30 68.2 °F 65.5 °F 30.07 in Calm     91% 0.00 in SCT
20:45 68.1 °F 65.4 °F 30.07 in Calm     91% 0.00 in SCT
21:00 68.1 °F 65.4 °F 30.07 in Calm     91% 0.00 in SCT
21:15 68.1 °F 65.4 °F 30.09 in Calm     91% 0.00 in SCT
21:40 68.1 °F 65.7 °F 30.10 in Calm     92% 0.00 in SCT
21:50 68.0 °F 65.3 °F 30.10 in Calm     91% 0.00 in SCT
22:00 68.0 °F 65.6 °F 30.10 in Calm     92% 0.00 in RA
22:10 68.0 °F 65.5 °F 30.09 in Calm     92% 0.01 in SCT
22:20 67.9 °F 65.5 °F 30.09 in Calm     92% 0.00 in SCT
22:30 67.9 °F 65.5 °F 30.10 in Calm     92% 0.00 in SCT
22:40 68.0 °F 65.6 °F 30.10 in Calm     92% 0.00 in SCT
22:50 68.0 °F 65.6 °F 30.10 in Calm   1.0 mph 92% 0.00 in SCT
23:00 67.8 °F 65.4 °F 30.10 in Calm     92% 0.00 in SCT
23:10 68.0 °F 65.6 °F 30.10 in Calm     92% 0.01 in SCT
23:20 67.9 °F 65.5 °F 30.10 in Calm     92% 0.00 in SCT
23:30 67.9 °F 65.5 °F 30.09 in Calm     92% 0.00 in SCT
23:40 67.9 °F 65.5 °F 30.09 in Calm     92% 0.00 in SCT
23:50 67.9 °F 65.5 °F 30.08 in Calm   1.0 mph 92% 0.00 in SCT
Piedmont Bend
Compliments of Weather Underground - 2 mb